Terminal Aerodrome Forecast
Issued by NWS Sioux Falls, SD

Home | Current Version | Previous Version | Text Only | Print | Product List | Glossary On
Versions: 1 2 3 4 5 6 7 8 9 10 11 12 13 14 15 16 17
241
FTUS43 KFSD 080532
TAFHON
TAF
KHON 080532Z 0806/0906 34025G35KT P6SM BKN035
     FM081000 34024G34KT P6SM BKN025
     FM081500 33020G30KT P6SM BKN025
     FM082300 32010KT P6SM SCT025=

USA.gov is the U.S. government's official web portal to all federal, state and local government web resources and services.